createdAt,value
2023-02-11T00:03:00.208Z,16.17
2023-02-11T00:07:02.466Z,16.93
2023-02-11T00:11:04.790Z,18.97
2023-02-11T00:15:08.529Z,13.97
2023-02-11T00:19:10.662Z,25.07
2023-02-11T00:23:12.886Z,20.43
2023-02-11T00:27:15.062Z,26.27
2023-02-11T00:31:18.239Z,22.27
2023-02-11T00:35:20.487Z,23.40
2023-02-11T00:39:22.673Z,21.90
2023-02-11T00:43:25.448Z,20.47
2023-02-11T00:47:27.701Z,21.13
2023-02-11T00:51:29.871Z,21.77
2023-02-11T00:55:32.024Z,24.43
2023-02-11T00:59:34.187Z,23.23
2023-02-11T01:03:36.925Z,20.30
2023-02-11T01:07:39.244Z,22.87
2023-02-11T01:11:41.570Z,19.97
2023-02-11T01:15:43.741Z,15.57
2023-02-11T01:19:46.002Z,19.17
2023-02-11T01:23:48.240Z,14.93
2023-02-11T01:27:50.389Z,18.77
2023-02-11T01:31:52.566Z,23.43
2023-02-11T01:35:54.784Z,25.53
2023-02-11T01:39:56.921Z,17.90
2023-02-11T01:43:59.123Z,22.37
2023-02-11T01:48:01.265Z,18.57
2023-02-11T01:52:12.509Z,16.80
2023-02-11T01:56:15.709Z,18.47
2023-02-11T02:00:20.154Z,20.40
2023-02-11T02:04:24.150Z,20.20
2023-02-11T02:08:31.920Z,19.33
2023-02-11T02:12:34.172Z,17.93
2023-02-11T02:16:37.544Z,18.13
2023-02-11T02:20:39.712Z,17.40
2023-02-11T02:24:57.225Z,19.43
2023-02-11T02:29:17.912Z,17.87
2023-02-11T02:33:23.322Z,24.67
2023-02-11T02:37:31.240Z,18.60
2023-02-11T02:41:34.839Z,18.17
2023-02-11T02:45:36.994Z,17.67
2023-02-11T02:49:39.197Z,20.37
2023-02-11T02:53:41.374Z,17.90
2023-02-11T02:57:57.036Z,19.80
2023-02-11T03:02:02.145Z,16.63
2023-02-11T03:06:09.209Z,14.30
2023-02-11T03:10:15.039Z,18.80
2023-02-11T03:14:18.808Z,11.40
2023-02-11T03:18:24.830Z,19.73
2023-02-11T03:22:28.801Z,14.47
2023-02-11T03:26:34.452Z,16.73
2023-02-11T03:30:41.431Z,15.27
2023-02-11T03:34:48.626Z,17.43
2023-02-11T03:38:53.014Z,16.70
2023-02-11T03:43:00.387Z,23.43
2023-02-11T03:47:03.561Z,21.20
2023-02-11T03:51:07.322Z,23.83
2023-02-11T03:55:14.396Z,17.70
2023-02-11T03:59:16.556Z,18.13
2023-02-11T04:03:18.765Z,16.67
2023-02-11T04:07:21.178Z,17.83
2023-02-11T04:11:23.429Z,9.80
2023-02-11T04:15:25.978Z,18.47
2023-02-11T04:19:28.104Z,20.27
2023-02-11T04:23:30.267Z,11.90
2023-02-11T04:27:32.480Z,18.50
2023-02-11T04:31:34.664Z,22.03
2023-02-11T04:35:36.808Z,17.80
2023-02-11T04:39:38.986Z,19.63
2023-02-11T04:43:41.229Z,16.50
2023-02-11T04:47:43.381Z,19.13
2023-02-11T04:51:48.934Z,14.83
2023-02-11T04:55:51.922Z,18.57
2023-02-11T04:59:54.268Z,16.67
2023-02-11T05:03:56.557Z,23.77
2023-02-11T05:07:58.740Z,27.30
2023-02-11T05:12:00.919Z,19.07
2023-02-11T05:16:03.064Z,22.97
2023-02-11T05:20:05.491Z,24.17
2023-02-11T05:24:07.929Z,17.43
2023-02-11T05:28:10.137Z,18.90
2023-02-11T05:32:12.345Z,21.33
2023-02-11T05:36:14.534Z,25.53
2023-02-11T05:40:16.867Z,15.03
2023-02-11T05:44:19.053Z,19.60
2023-02-11T05:48:21.215Z,14.43
2023-02-11T05:52:24.056Z,13.10
2023-02-11T05:56:26.167Z,23.73
2023-02-11T06:00:28.310Z,15.50
2023-02-11T06:04:30.503Z,13.57
2023-02-11T06:08:32.674Z,20.23
2023-02-11T06:12:34.787Z,10.27
2023-02-11T06:16:37.067Z,25.10
2023-02-11T06:20:39.213Z,14.47
2023-02-11T06:24:59.812Z,23.67
2023-02-11T06:29:02.886Z,19.07
2023-02-11T06:33:05.433Z,20.07
2023-02-11T06:37:07.606Z,24.37
2023-02-11T06:41:10.697Z,13.73
2023-02-11T06:45:12.837Z,22.67
2023-02-11T06:49:15.065Z,15.17
2023-02-11T06:53:17.184Z,22.43
2023-02-11T06:57:19.335Z,26.50
2023-02-11T07:01:22.122Z,23.17
2023-02-11T07:05:24.242Z,21.23
2023-02-11T07:09:26.451Z,29.37
2023-02-11T07:13:28.630Z,24.90
2023-02-11T07:17:30.812Z,20.37
2023-02-11T07:21:33.019Z,25.93
2023-02-11T07:25:36.120Z,16.17
2023-02-11T07:29:38.293Z,18.67
2023-02-11T07:33:40.540Z,20.43
2023-02-11T07:37:42.716Z,20.43
2023-02-11T07:41:44.875Z,23.87
2023-02-11T07:45:47.253Z,23.70
2023-02-11T07:49:49.430Z,16.43
2023-02-11T07:53:52.046Z,21.83
2023-02-11T07:57:54.284Z,19.93
2023-02-11T08:01:56.534Z,19.07
2023-02-11T08:05:58.809Z,20.13
2023-02-11T08:10:01.046Z,14.37
2023-02-11T08:14:03.271Z,19.57
2023-02-11T08:18:05.421Z,24.70
2023-02-11T08:22:07.583Z,23.10
2023-02-11T08:26:11.226Z,14.37
2023-02-11T08:30:13.641Z,16.63
2023-02-11T08:34:16.184Z,20.63
2023-02-11T08:38:18.360Z,22.93
2023-02-11T08:42:20.523Z,19.70
2023-02-11T08:46:22.789Z,12.93
2023-02-11T08:50:25.005Z,13.67
2023-02-11T08:54:27.153Z,9.63
2023-02-11T08:58:29.267Z,22.90
2023-02-11T09:02:31.449Z,19.53
2023-02-11T09:06:33.751Z,15.20
2023-02-11T09:10:35.905Z,18.30
2023-02-11T09:14:38.048Z,8.60
2023-02-11T09:18:40.278Z,4.33
2023-02-11T09:22:42.425Z,15.90
2023-02-11T09:26:44.713Z,18.63
2023-02-11T09:30:46.948Z,20.43
2023-02-11T09:34:49.186Z,12.77
2023-02-11T09:38:51.893Z,19.40
2023-02-11T09:43:06.222Z,9.37
2023-02-11T09:47:17.322Z,21.23
2023-02-11T09:51:22.550Z,18.33
2023-02-11T09:55:27.692Z,6.83
2023-02-11T09:59:29.902Z,15.27
2023-02-11T10:03:47.127Z,12.90
2023-02-11T10:07:55.991Z,18.93
2023-02-11T10:12:16.689Z,13.27
2023-02-11T10:16:44.971Z,15.83
2023-02-11T10:21:01.621Z,15.33
2023-02-11T10:25:09.022Z,13.97
2023-02-11T10:29:15.475Z,15.80
2023-02-11T10:33:27.365Z,10.97
2023-02-11T10:37:29.485Z,11.17
2023-02-11T10:41:34.398Z,15.97
2023-02-11T10:45:37.705Z,12.13
2023-02-11T10:49:43.879Z,15.27
2023-02-11T10:53:46.943Z,10.57
2023-02-11T10:57:57.177Z,15.13
2023-02-11T11:02:01.169Z,8.07
2023-02-11T11:06:04.444Z,14.07
2023-02-11T11:10:06.802Z,12.87
2023-02-11T11:14:19.078Z,14.73
2023-02-11T11:18:23.656Z,11.90
2023-02-11T11:22:25.944Z,19.40
2023-02-11T11:26:29.637Z,14.40
2023-02-11T11:30:39.561Z,16.83
2023-02-11T11:34:49.298Z,14.17
2023-02-11T11:38:56.393Z,13.67
2023-02-11T11:43:06.431Z,9.60
2023-02-11T11:47:11.554Z,9.43
2023-02-11T11:51:14.102Z,10.37
2023-02-11T11:55:25.428Z,9.00
2023-02-11T11:59:27.722Z,9.57
2023-02-11T12:03:42.094Z,7.10
2023-02-11T12:07:59.527Z,6.83
2023-02-11T12:12:20.264Z,7.93
2023-02-11T12:16:30.858Z,8.60
2023-02-11T12:20:35.832Z,5.87
2023-02-11T12:24:47.224Z,9.03
2023-02-11T12:29:08.111Z,10.93
2023-02-11T12:33:25.301Z,9.50
2023-02-11T12:37:46.015Z,8.00
2023-02-11T12:41:48.099Z,6.57
2023-02-11T12:46:00.762Z,9.93
2023-02-11T12:50:07.767Z,3.80
2023-02-11T12:54:16.227Z,10.33
2023-02-11T12:58:29.682Z,9.60
2023-02-11T13:02:56.304Z,5.97
2023-02-11T13:07:00.927Z,9.30
2023-02-11T13:11:05.095Z,7.60
2023-02-11T13:15:08.460Z,10.17
2023-02-11T13:19:13.432Z,7.30
2023-02-11T13:23:28.930Z,7.90
2023-02-11T13:27:42.097Z,5.77
2023-02-11T13:31:53.124Z,11.43
2023-02-11T13:35:58.252Z,3.83
2023-02-11T13:40:05.603Z,7.20
2023-02-11T13:44:10.818Z,5.00
2023-02-11T13:48:38.983Z,5.07
2023-02-11T13:52:41.222Z,6.70
2023-02-11T13:56:43.337Z,5.53
2023-02-11T14:00:48.013Z,2.43
2023-02-11T14:05:05.106Z,4.73
2023-02-11T14:09:10.427Z,4.97
2023-02-11T14:13:22.752Z,3.73
2023-02-11T14:17:31.949Z,7.83
2023-02-11T14:21:40.379Z,7.37
2023-02-11T14:25:42.983Z,5.57
2023-02-11T14:29:51.268Z,4.77
2023-02-11T14:33:56.226Z,7.40
2023-02-11T14:37:58.375Z,5.80
2023-02-11T14:42:01.874Z,3.10
2023-02-11T14:46:04.220Z,4.43
2023-02-11T14:50:09.001Z,4.53
2023-02-11T14:54:17.151Z,3.90
2023-02-11T14:58:21.180Z,2.60
2023-02-11T15:02:25.230Z,5.00
2023-02-11T15:06:29.812Z,5.13
2023-02-11T15:10:33.934Z,5.33
2023-02-11T15:14:37.047Z,5.43
2023-02-11T15:18:41.095Z,4.27
2023-02-11T15:22:44.635Z,4.40
2023-02-11T15:26:55.849Z,2.73
2023-02-11T15:31:05.804Z,3.77
2023-02-11T15:35:09.216Z,3.67
